Clara — V2CC9 — position and weather

sailwx.info

Track history (hours):
 
Tides and Currents Weather Stations Pressure Air Temp Water Temp Dewpoint Dewpoint Depression Visibility Wind Speed Wind Dir Waves Ship Positions

Clara

Last reported at 2014-Nov-20 22:33 UTC. Time now 2014-Nov-22 11:26 UTC.
Position N 47°57' W 006°31'.

Length 108 m; draft 7.2 m.

Type: Cargo ship. MMSI: 304983000.

Date/timePositionNaut miles runAvg speedWind from/ knotsBaromVisibWave heightAir tempDewpointWater temp
2014-Nov-20 22:33N 47°57' W 006°31'10 9.8
2014-Nov-20 21:33N 48°05' W 006°24'2211.0
2014-Nov-20 19:34N 48°25' W 006°09'28310.3
2014-Nov-19 16:05N 50°35' E 000°18'611.0
2014-Nov-19 15:33N 50°37' E 000°26'1111.4
2014-Nov-19 14:33N 50°42' E 000°43'1211.5
2014-Nov-19 13:33N 50°49' E 000°58'1110.9
2014-Nov-19 12:30N 50°56' E 001°12'9 9.8
2014-Nov-19 11:33N 51°02' E 001°23'9 8.7
2014-Nov-19 10:33N 51°07' E 001°33'8 8.4
2014-Nov-19 09:33N 51°13' E 001°43'10 9.6
2014-Nov-19 08:34N 51°20' E 001°53'9 8.6
2014-Nov-19 07:33N 51°23' E 002°06'1110.5
2014-Nov-19 06:33N 51°21' E 002°23'1211.5
2014-Nov-19 05:33N 51°23' E 002°41'10 9.8
2014-Nov-19 04:33N 51°23' E 002°57'1211.7
2014-Nov-19 03:33N 51°25' E 003°15'1212.0
2014-Nov-19 02:33N 51°26' E 003°34'9 9.3
2014-Nov-19 01:34N 51°21' E 003°47'3 3.0
2014-Nov-19 00:33N 51°19' E 003°50'0 0.2
2014-Nov-18 23:31N 51°19' E 003°50'0 0.0
2014-Nov-18 22:31N 51°19' E 003°50'0 0.0
2014-Nov-18 21:31N 51°19' E 003°50'0 0.0
2014-Nov-18 20:31N 51°19' E 003°50'0 0.0
2014-Nov-18 19:28N 51°19' E 003°50'0 0.0
2014-Nov-18 18:31N 51°19' E 003°50'0 0.0
2014-Nov-18 17:31N 51°19' E 003°50'0 0.0
2014-Nov-18 16:31N 51°19' E 003°50'0 0.0
2014-Nov-18 15:31N 51°19' E 003°50'0 0.0
2014-Nov-18 14:31N 51°19' E 003°50'0 0.0
2014-Nov-18 13:31N 51°19' E 003°50'0 0.0
2014-Nov-18 12:31N 51°19' E 003°50'0 0.0
2014-Nov-18 11:31N 51°19' E 003°50'0 0.0
2014-Nov-18 10:28N 51°19' E 003°50'0 0.0
2014-Nov-18 09:31N 51°19' E 003°50'0 0.0
2014-Nov-18 08:31N 51°19' E 003°50'0 0.0
2014-Nov-18 07:31N 51°19' E 003°50'0 0.0
2014-Nov-18 06:31N 51°19' E 003°50'0 0.0
2014-Nov-18 05:31N 51°19' E 003°50'0 0.0
2014-Nov-18 04:31N 51°19' E 003°50'0 0.0
2014-Nov-18 03:31N 51°19' E 003°50'0 0.0
2014-Nov-18 02:31N 51°19' E 003°50'0 0.0
2014-Nov-18 01:28N 51°19' E 003°50'0 0.0
2014-Nov-18 00:28N 51°19' E 003°50'0 0.0
2014-Nov-17 23:28N 51°19' E 003°50'0 0.0
2014-Nov-17 22:28N 51°19' E 003°50'0 0.0
2014-Nov-17 21:31N 51°19' E 003°50'0 0.0
2014-Nov-17 20:31N 51°19' E 003°50'0 0.0
2014-Nov-17 19:31N 51°19' E 003°50'0 0.0
2014-Nov-17 18:28N 51°19' E 003°50'0 0.0
2014-Nov-17 17:31N 51°19' E 003°50'0 0.0
2014-Nov-17 16:31N 51°19' E 003°50'0 0.0
2014-Nov-17 15:31N 51°19' E 003°50'0 0.0
2014-Nov-17 14:31N 51°19' E 003°50'0 0.0
2014-Nov-17 13:28N 51°19' E 003°50'0 0.0
2014-Nov-17 12:31N 51°19' E 003°50'0 0.0
2014-Nov-17 11:28N 51°19' E 003°50'0 0.0
2014-Nov-17 10:31N 51°19' E 003°50'0 0.0
2014-Nov-17 09:28N 51°19' E 003°50'0 0.0
2014-Nov-17 08:28N 51°19' E 003°50'0 0.0
2014-Nov-17 07:31N 51°19' E 003°50'0 0.0
2014-Nov-17 06:28N 51°19' E 003°50'0 0.0
2014-Nov-17 05:31N 51°19' E 003°50'0 0.0
2014-Nov-17 04:31N 51°19' E 003°50'0 0.0
2014-Nov-17 03:32N 51°19' E 003°50'0 0.0
2014-Nov-17 02:32N 51°19' E 003°50'0 0.0
2014-Nov-17 01:32N 51°19' E 003°50'0 0.0
2014-Nov-17 00:29N 51°19' E 003°50'0 0.0
2014-Nov-16 23:32N 51°19' E 003°50'0 0.0
2014-Nov-16 22:32N 51°19' E 003°50'0 0.0
2014-Nov-16 21:29N 51°19' E 003°50'0 0.0
2014-Nov-16 20:32N 51°19' E 003°50'0 0.0
2014-Nov-16 19:32N 51°19' E 003°50'0 0.0
2014-Nov-16 18:32N 51°19' E 003°50'0 0.0
2014-Nov-16 17:32N 51°19' E 003°50'0 0.0
2014-Nov-16 16:32N 51°19' E 003°50'0 0.0
2014-Nov-16 15:32N 51°19' E 003°50'0 0.0
2014-Nov-16 14:32N 51°19' E 003°50'0 0.0
2014-Nov-16 13:32N 51°19' E 003°50'0 0.0
2014-Nov-16 12:32N 51°19' E 003°50'0 0.0
2014-Nov-16 11:32N 51°19' E 003°50'0 0.0
2014-Nov-16 10:32N 51°19' E 003°50'0 0.0
2014-Nov-16 09:32N 51°19' E 003°50'0 0.0
2014-Nov-16 08:32N 51°19' E 003°50'0 0.0
2014-Nov-16 07:32N 51°19' E 003°50'0 0.0
2014-Nov-16 06:29N 51°19' E 003°50'0 0.0
2014-Nov-16 05:32N 51°19' E 003°50'0 0.0
2014-Nov-16 04:32N 51°19' E 003°50'0 0.0
2014-Nov-16 03:31N 51°19' E 003°50'0 0.0
2014-Nov-16 02:31N 51°19' E 003°50'0 0.0
2014-Nov-16 01:31N 51°19' E 003°50'0 0.0
2014-Nov-16 00:31N 51°19' E 003°50'0 0.0
2014-Nov-15 23:31N 51°19' E 003°50'0 0.0
2014-Nov-15 22:31N 51°19' E 003°50'0 0.0
2014-Nov-15 21:32N 51°19' E 003°50'0 0.0
2014-Nov-15 20:32N 51°19' E 003°50'0 0.0
2014-Nov-15 19:31N 51°19' E 003°50'0 0.0
2014-Nov-15 18:31N 51°19' E 003°50'0 0.0
2014-Nov-15 17:32N 51°19' E 003°50'0 0.0
2014-Nov-15 16:28N 51°19' E 003°50'0 0.0
2014-Nov-15 15:32N 51°19' E 003°50'0 0.0
2014-Nov-15 14:32N 51°19' E 003°50'0 0.0
2014-Nov-15 13:31N 51°19' E 003°50'0 0.0
2014-Nov-15 12:31N 51°19' E 003°50'0 0.0
2014-Nov-15 11:31N 51°19' E 003°50'0 0.0
2014-Nov-15 10:31N 51°19' E 003°50'0 0.0
2014-Nov-15 09:31N 51°19' E 003°50'0 0.0
2014-Nov-15 08:28N 51°19' E 003°50'0 0.0
2014-Nov-15 07:31N 51°19' E 003°50'0 0.0
2014-Nov-15 06:31N 51°19' E 003°50'0 0.0
2014-Nov-15 05:32N 51°19' E 003°50'0 0.0
2014-Nov-15 04:29N 51°19' E 003°50'0 0.0
2014-Nov-15 03:31N 51°19' E 003°50'0 0.0
2014-Nov-15 02:28N 51°19' E 003°50'0 0.0
2014-Nov-15 01:31N 51°19' E 003°50'0 0.0
2014-Nov-15 00:28N 51°19' E 003°50'0 0.0
2014-Nov-14 23:19N 51°19' E 003°50'0 0.0
2014-Nov-14 22:31N 51°19' E 003°50'0 0.0
2014-Nov-14 21:28N 51°19' E 003°50'0 0.0
2014-Nov-14 20:31N 51°19' E 003°50'0 0.0
2014-Nov-14 19:31N 51°19' E 003°50'0 0.0
2014-Nov-14 18:31N 51°19' E 003°50'0 0.0
2014-Nov-14 17:28N 51°19' E 003°50'0 0.0
2014-Nov-14 16:28N 51°19' E 003°50'1 1.5
2014-Nov-14 15:33N 51°20' E 003°49'4 4.3
2014-Nov-14 14:33N 51°22' E 003°44'18 9.1
2014-Nov-14 12:33N 51°35' E 003°23'10 9.8
2014-Nov-14 11:33N 51°43' E 003°14'14 9.2
2014-Nov-14 10:03N 51°57' E 003°19'6 8.7
2014-Nov-14 09:20N 52°03' E 003°23'810.9
2014-Nov-14 08:33N 52°03' E 003°37'1010.4
2014-Nov-14 07:33N 52°03' E 003°53'10 9.5
2014-Nov-14 06:33N 51°59' E 004°07'9 8.7
2014-Nov-14 05:34N 51°53' E 004°18'1 1.3
2014-Nov-14 04:34N 51°54' E 004°16'0 0.0
2014-Nov-14 03:31N 51°54' E 004°16'0 0.0
2014-Nov-14 02:31N 51°53' E 004°16'0 0.0
2014-Nov-14 01:28N 51°53' E 004°16'0 0.0
2014-Nov-14 00:31N 51°53' E 004°16'0 0.0
2014-Nov-13 23:31N 51°53' E 004°16'0 0.0
2014-Nov-13 22:31N 51°53' E 004°16'0 0.0
2014-Nov-13 21:31N 51°53' E 004°16'0 0.0
2014-Nov-13 20:31N 51°53' E 004°16'0 0.0
2014-Nov-13 19:31N 51°54' E 004°16'0 0.0
2014-Nov-13 18:31N 51°53' E 004°16'0 0.0
2014-Nov-13 17:31N 51°53' E 004°16'0 0.0
2014-Nov-13 16:31N 51°53' E 004°16'0 0.0
2014-Nov-13 15:31N 51°53' E 004°16'0 0.0
2014-Nov-13 14:31N 51°53' E 004°16'0 0.0
2014-Nov-13 13:31N 51°53' E 004°16'0 0.0
2014-Nov-13 12:31N 51°53' E 004°16'0 0.0
2014-Nov-13 11:31N 51°53' E 004°16'0 0.0
2014-Nov-13 10:31N 51°53' E 004°16'0 0.0
2014-Nov-13 09:31N 51°53' E 004°16'0 0.0
2014-Nov-13 08:31N 51°53' E 004°16'0 0.0
2014-Nov-13 07:32N 51°53' E 004°16'0 0.0
2014-Nov-13 06:31N 51°53' E 004°16'0 0.0
2014-Nov-13 05:31N 51°53' E 004°16'0 0.0
2014-Nov-13 04:31N 51°53' E 004°16'0 0.0
2014-Nov-13 03:31N 51°53' E 004°16'0 0.0
2014-Nov-13 02:31N 51°53' E 004°16'0 0.0
2014-Nov-13 01:32N 51°53' E 004°16'0 0.3
2014-Nov-13 00:33N 51°53' E 004°16'1 0.7
2014-Nov-12 23:34N 51°54' E 004°17'6 6.1
2014-Nov-12 22:33N 51°58' E 004°09'7 7.2
2014-Nov-12 21:33N 51°60' E 003°58'6210.2
2014-Nov-12 15:31N 51°37' E 002°26'1212.3
2014-Nov-12 14:32N 51°28' E 002°13'1111.7
2014-Nov-12 13:33N 51°17' E 002°06'1211.5
2014-Nov-12 12:33N 51°09' E 001°53'1111.0
2014-Nov-12 11:33N 51°02' E 001°40'1010.1
2014-Nov-12 10:33N 50°54' E 001°29'  
Track history (hours):
 
Tides and Currents Weather Stations Pressure Air Temp Water Temp Dewpoint Dewpoint Depression Visibility Wind Speed Wind Dir Waves Ship Positions

Clara

Last reported at 2014-Nov-20 22:33 UTC. Time now 2014-Nov-22 11:26 UTC.
Position N 47°57' W 006°31'.

Length 108 m; draft 7.2 m.

Type: Cargo ship. MMSI: 304983000.

Date/timePositionNaut miles runAvg speedWind from/ knotsBaromVisibWave heightAir tempDewpointWater temp
2014-Nov-20 22:33N 47°57' W 006°31'10 9.8
2014-Nov-20 21:33N 48°05' W 006°24'2211.0
2014-Nov-20 19:34N 48°25' W 006°09'28310.3
2014-Nov-19 16:05N 50°35' E 000°18'611.0
2014-Nov-19 15:33N 50°37' E 000°26'1111.4
2014-Nov-19 14:33N 50°42' E 000°43'1211.5
2014-Nov-19 13:33N 50°49' E 000°58'1110.9
2014-Nov-19 12:30N 50°56' E 001°12'9 9.8
2014-Nov-19 11:33N 51°02' E 001°23'9 8.7
2014-Nov-19 10:33N 51°07' E 001°33'8 8.4
2014-Nov-19 09:33N 51°13' E 001°43'10 9.6
2014-Nov-19 08:34N 51°20' E 001°53'9 8.6
2014-Nov-19 07:33N 51°23' E 002°06'1110.5
2014-Nov-19 06:33N 51°21' E 002°23'1211.5
2014-Nov-19 05:33N 51°23' E 002°41'10 9.8
2014-Nov-19 04:33N 51°23' E 002°57'1211.7
2014-Nov-19 03:33N 51°25' E 003°15'1212.0
2014-Nov-19 02:33N 51°26' E 003°34'9 9.3
2014-Nov-19 01:34N 51°21' E 003°47'3 3.0
2014-Nov-19 00:33N 51°19' E 003°50'0 0.2
2014-Nov-18 23:31N 51°19' E 003°50'0 0.0
2014-Nov-18 22:31N 51°19' E 003°50'0 0.0
2014-Nov-18 21:31N 51°19' E 003°50'0 0.0
2014-Nov-18 20:31N 51°19' E 003°50'0 0.0
2014-Nov-18 19:28N 51°19' E 003°50'0 0.0
2014-Nov-18 18:31N 51°19' E 003°50'0 0.0
2014-Nov-18 17:31N 51°19' E 003°50'0 0.0
2014-Nov-18 16:31N 51°19' E 003°50'0 0.0
2014-Nov-18 15:31N 51°19' E 003°50'0 0.0
2014-Nov-18 14:31N 51°19' E 003°50'0 0.0
2014-Nov-18 13:31N 51°19' E 003°50'0 0.0
2014-Nov-18 12:31N 51°19' E 003°50'0 0.0
2014-Nov-18 11:31N 51°19' E 003°50'0 0.0
2014-Nov-18 10:28N 51°19' E 003°50'0 0.0
2014-Nov-18 09:31N 51°19' E 003°50'0 0.0
2014-Nov-18 08:31N 51°19' E 003°50'0 0.0
2014-Nov-18 07:31N 51°19' E 003°50'0 0.0
2014-Nov-18 06:31N 51°19' E 003°50'0 0.0
2014-Nov-18 05:31N 51°19' E 003°50'0 0.0
2014-Nov-18 04:31N 51°19' E 003°50'0 0.0
2014-Nov-18 03:31N 51°19' E 003°50'0 0.0
2014-Nov-18 02:31N 51°19' E 003°50'0 0.0
2014-Nov-18 01:28N 51°19' E 003°50'0 0.0
2014-Nov-18 00:28N 51°19' E 003°50'0 0.0
2014-Nov-17 23:28N 51°19' E 003°50'0 0.0
2014-Nov-17 22:28N 51°19' E 003°50'0 0.0
2014-Nov-17 21:31N 51°19' E 003°50'0 0.0
2014-Nov-17 20:31N 51°19' E 003°50'0 0.0
2014-Nov-17 19:31N 51°19' E 003°50'0 0.0
2014-Nov-17 18:28N 51°19' E 003°50'0 0.0
2014-Nov-17 17:31N 51°19' E 003°50'0 0.0
2014-Nov-17 16:31N 51°19' E 003°50'0 0.0
2014-Nov-17 15:31N 51°19' E 003°50'0 0.0
2014-Nov-17 14:31N 51°19' E 003°50'0 0.0
2014-Nov-17 13:28N 51°19' E 003°50'0 0.0
2014-Nov-17 12:31N 51°19' E 003°50'0 0.0
2014-Nov-17 11:28N 51°19' E 003°50'0 0.0
2014-Nov-17 10:31N 51°19' E 003°50'0 0.0
2014-Nov-17 09:28N 51°19' E 003°50'0 0.0
2014-Nov-17 08:28N 51°19' E 003°50'0 0.0
2014-Nov-17 07:31N 51°19' E 003°50'0 0.0
2014-Nov-17 06:28N 51°19' E 003°50'0 0.0
2014-Nov-17 05:31N 51°19' E 003°50'0 0.0
2014-Nov-17 04:31N 51°19' E 003°50'0 0.0
2014-Nov-17 03:32N 51°19' E 003°50'0 0.0
2014-Nov-17 02:32N 51°19' E 003°50'0 0.0
2014-Nov-17 01:32N 51°19' E 003°50'0 0.0
2014-Nov-17 00:29N 51°19' E 003°50'0 0.0
2014-Nov-16 23:32N 51°19' E 003°50'0 0.0
2014-Nov-16 22:32N 51°19' E 003°50'0 0.0
2014-Nov-16 21:29N 51°19' E 003°50'0 0.0
2014-Nov-16 20:32N 51°19' E 003°50'0 0.0
2014-Nov-16 19:32N 51°19' E 003°50'0 0.0
2014-Nov-16 18:32N 51°19' E 003°50'0 0.0
2014-Nov-16 17:32N 51°19' E 003°50'0 0.0
2014-Nov-16 16:32N 51°19' E 003°50'0 0.0
2014-Nov-16 15:32N 51°19' E 003°50'0 0.0
2014-Nov-16 14:32N 51°19' E 003°50'0 0.0
2014-Nov-16 13:32N 51°19' E 003°50'0 0.0
2014-Nov-16 12:32N 51°19' E 003°50'0 0.0
2014-Nov-16 11:32N 51°19' E 003°50'0 0.0
2014-Nov-16 10:32N 51°19' E 003°50'0 0.0
2014-Nov-16 09:32N 51°19' E 003°50'0 0.0
2014-Nov-16 08:32N 51°19' E 003°50'0 0.0
2014-Nov-16 07:32N 51°19' E 003°50'0 0.0
2014-Nov-16 06:29N 51°19' E 003°50'0 0.0
2014-Nov-16 05:32N 51°19' E 003°50'0 0.0
2014-Nov-16 04:32N 51°19' E 003°50'0 0.0
2014-Nov-16 03:31N 51°19' E 003°50'0 0.0
2014-Nov-16 02:31N 51°19' E 003°50'0 0.0
2014-Nov-16 01:31N 51°19' E 003°50'0 0.0
2014-Nov-16 00:31N 51°19' E 003°50'0 0.0
2014-Nov-15 23:31N 51°19' E 003°50'0 0.0
2014-Nov-15 22:31N 51°19' E 003°50'0 0.0
2014-Nov-15 21:32N 51°19' E 003°50'0 0.0
2014-Nov-15 20:32N 51°19' E 003°50'0 0.0
2014-Nov-15 19:31N 51°19' E 003°50'0 0.0
2014-Nov-15 18:31N 51°19' E 003°50'0 0.0
2014-Nov-15 17:32N 51°19' E 003°50'0 0.0
2014-Nov-15 16:28N 51°19' E 003°50'0 0.0
2014-Nov-15 15:32N 51°19' E 003°50'0 0.0
2014-Nov-15 14:32N 51°19' E 003°50'0 0.0
2014-Nov-15 13:31N 51°19' E 003°50'0 0.0
2014-Nov-15 12:31N 51°19' E 003°50'0 0.0
2014-Nov-15 11:31N 51°19' E 003°50'0 0.0
2014-Nov-15 10:31N 51°19' E 003°50'0 0.0
2014-Nov-15 09:31N 51°19' E 003°50'0 0.0
2014-Nov-15 08:28N 51°19' E 003°50'0 0.0
2014-Nov-15 07:31N 51°19' E 003°50'0 0.0
2014-Nov-15 06:31N 51°19' E 003°50'0 0.0
2014-Nov-15 05:32N 51°19' E 003°50'0 0.0
2014-Nov-15 04:29N 51°19' E 003°50'0 0.0
2014-Nov-15 03:31N 51°19' E 003°50'0 0.0
2014-Nov-15 02:28N 51°19' E 003°50'0 0.0
2014-Nov-15 01:31N 51°19' E 003°50'0 0.0
2014-Nov-15 00:28N 51°19' E 003°50'0 0.0
2014-Nov-14 23:19N 51°19' E 003°50'0 0.0
2014-Nov-14 22:31N 51°19' E 003°50'0 0.0
2014-Nov-14 21:28N 51°19' E 003°50'0 0.0
2014-Nov-14 20:31N 51°19' E 003°50'0 0.0
2014-Nov-14 19:31N 51°19' E 003°50'0 0.0
2014-Nov-14 18:31N 51°19' E 003°50'0 0.0
2014-Nov-14 17:28N 51°19' E 003°50'0 0.0
2014-Nov-14 16:28N 51°19' E 003°50'1 1.5
2014-Nov-14 15:33N 51°20' E 003°49'4 4.3
2014-Nov-14 14:33N 51°22' E 003°44'18 9.1
2014-Nov-14 12:33N 51°35' E 003°23'10 9.8
2014-Nov-14 11:33N 51°43' E 003°14'14 9.2
2014-Nov-14 10:03N 51°57' E 003°19'6 8.7
2014-Nov-14 09:20N 52°03' E 003°23'810.9
2014-Nov-14 08:33N 52°03' E 003°37'1010.4
2014-Nov-14 07:33N 52°03' E 003°53'10 9.5
2014-Nov-14 06:33N 51°59' E 004°07'9 8.7
2014-Nov-14 05:34N 51°53' E 004°18'1 1.3
2014-Nov-14 04:34N 51°54' E 004°16'0 0.0
2014-Nov-14 03:31N 51°54' E 004°16'0 0.0
2014-Nov-14 02:31N 51°53' E 004°16'0 0.0
2014-Nov-14 01:28N 51°53' E 004°16'0 0.0
2014-Nov-14 00:31N 51°53' E 004°16'0 0.0
2014-Nov-13 23:31N 51°53' E 004°16'0 0.0
2014-Nov-13 22:31N 51°53' E 004°16'0 0.0
2014-Nov-13 21:31N 51°53' E 004°16'0 0.0
2014-Nov-13 20:31N 51°53' E 004°16'0 0.0
2014-Nov-13 19:31N 51°54' E 004°16'0 0.0
2014-Nov-13 18:31N 51°53' E 004°16'0 0.0
2014-Nov-13 17:31N 51°53' E 004°16'0 0.0
2014-Nov-13 16:31N 51°53' E 004°16'0 0.0
2014-Nov-13 15:31N 51°53' E 004°16'0 0.0
2014-Nov-13 14:31N 51°53' E 004°16'0 0.0
2014-Nov-13 13:31N 51°53' E 004°16'0 0.0
2014-Nov-13 12:31N 51°53' E 004°16'0 0.0
2014-Nov-13 11:31N 51°53' E 004°16'0 0.0
2014-Nov-13 10:31N 51°53' E 004°16'0 0.0
2014-Nov-13 09:31N 51°53' E 004°16'0 0.0
2014-Nov-13 08:31N 51°53' E 004°16'0 0.0
2014-Nov-13 07:32N 51°53' E 004°16'0 0.0
2014-Nov-13 06:31N 51°53' E 004°16'0 0.0
2014-Nov-13 05:31N 51°53' E 004°16'0 0.0
2014-Nov-13 04:31N 51°53' E 004°16'0 0.0
2014-Nov-13 03:31N 51°53' E 004°16'0 0.0
2014-Nov-13 02:31N 51°53' E 004°16'0 0.0
2014-Nov-13 01:32N 51°53' E 004°16'0 0.3
2014-Nov-13 00:33N 51°53' E 004°16'1 0.7
2014-Nov-12 23:34N 51°54' E 004°17'6 6.1
2014-Nov-12 22:33N 51°58' E 004°09'7 7.2
2014-Nov-12 21:33N 51°60' E 003°58'6210.2
2014-Nov-12 15:31N 51°37' E 002°26'1212.3
2014-Nov-12 14:32N 51°28' E 002°13'1111.7
2014-Nov-12 13:33N 51°17' E 002°06'1211.5
2014-Nov-12 12:33N 51°09' E 001°53'1111.0
2014-Nov-12 11:33N 51°02' E 001°40'1010.1
2014-Nov-12 10:33N 50°54' E 001°29'  

Dump ship's entire track history